Pagrindinis puslapis
METAR-TAF:

METAR-TAF

Oro uostai :

Dubajaus tarptautinis oro uostas

Dubajus, Jungtiniai Arabų Emyratai

platuma: 25-15-10N, ilguma: 055-21-52E, Aukštis: 8 m

Dabartinis oras

Ataskaita buvo paskelbta 53 minutes, ne 04:00 UTC
Vėjas 7 kt iš Rytų/Pietryčių
Temperatūra 33°C
Drėgmė 67%
Slėgis 1006 hPa
Matomumas: 8000 m

METAR: OMDB 180400Z 11007KT 8000 NSC 33/26 Q1006 NOSIG

Laikas: 08:53 (04:53 UTC)

Prognozė

Ataskaita buvo paskelbta 5 valandos ir 54 minutes, ne 22:59 UTC
Prognozė galioja nuo 18 metu 00 UTC su 19 metu 06 UTC
Vėjas 5 kt iš Rytų/Pietryčių
Matomumas 10 km arba daugiau
nėra debesų žemiau 1500 m ir nėra kamuolinių lietaus debesų
Tapsmas
nuo 18 metu 07 UTC su 18 metu 09 UTC
Vėjas 12 kt iš Šiaurės/Šiaurės Vakarų
Tapsmas
nuo 18 metu 16 UTC su 18 metu 18 UTC
Vėjas 5 kt iš Rytų

TAF: OMDB 172259Z 1800/1906 12005KT CAVOK BECMG 1807/1809 34012KT BECMG 1816/1818 09005KT

Orai ataskaitas ir orų prognozės (METAR, TAF).

turimą stotys yra geltonos ir raudonos taškus žemėlapyje.

Perkelti pele per norėdami pamatyti stoties vardą.

Tada spustelėkite, norėdami matyti oro stebėjimo ir prognozės.

Norėdami pakeisti žemėlapį: spustelėkite ant žalios mygtukų su juodo kryžiaus žemyn,; žalią mygtuką su brūkšneliu, jei norite nutolinti; arba žalių rodyklių gretimoms žemėlapius.


METAR-TAF: